Latest Weather Observations for Thargomindah

IDQ60801

Issued at 6:35 pm EST Tuesday 3 March 2015 (issued every 30 minutes, with the page automatically refreshed every 10 minutes)

About weather observations | Map of weather stations | Latest weather observations for QLD | Other Formats
Station Details ID: 045025 Name: THARGOMINDAH AIRPORT Lat: -27.99 Lon: 143.81 Height: 130.89 m
Data from the previous 72 hours. | See also: Recent months at Thargomindah
Date/Time
EST
Temp
°C
App
Temp
°C
Dew
Point
Rel
Hum
%
Delta-T
°C
Wind Press
QNH
hPa
Press
MSL
hPa
Rain
since 9 am
mm
Dir
 
Spd
km/h
Gust
km/h
Spd
kts
Gust
kts
03/06:30pm 40.5 36.2 7.8 14 18.9 SSW 20 28 11 15 1008.1 - 0.0
03/06:00pm 41.3 36.4 8.5 14 19.2 S 24 33 13 18 1007.6 1006.8 0.0
03/05:30pm 41.7 - - - - SSW 19 24 10 13 1007.5 - 0.0
03/05:00pm 41.5 - - - - SSW 20 33 11 18 1007.4 - 0.0
03/04:30pm 42.0 - - - - W 13 24 7 13 1007.3 - 0.0
03/04:00pm 41.9 39.8 9.9 15 19.1 WSW 11 17 6 9 1007.3 - 0.0
03/03:30pm 41.0 40.0 10.2 16 18.4 ESE 6 13 3 7 1007.5 - 0.0
03/03:00pm 41.9 - - - - NW 11 28 6 15 1007.9 1006.9 0.0
03/02:30pm 41.4 - - - - W 13 24 7 13 1008.3 - 0.0
03/02:00pm 40.8 37.2 10.0 16 18.4 W 19 24 10 13 1008.8 - 0.0
03/01:30pm 40.6 - - - - N 9 15 5 8 1009.2 - 0.0
03/01:00pm 41.0 39.4 15.1 22 16.6 N 17 32 9 17 1009.6 - 0.0
03/12:30pm 40.8 39.9 14.9 22 16.5 N 13 20 7 11 1010.1 - 0.0
03/12:00pm 40.3 38.8 15.2 23 16.0 NW 17 32 9 17 1010.4 1009.4 0.0
03/11:30am 39.6 37.1 15.2 23 15.6 NNW 22 32 12 17 1010.9 - 0.0
03/11:00am 39.2 36.7 16.2 26 14.8 N 24 39 13 21 1011.4 - 0.0
03/10:30am 38.4 34.9 15.5 26 14.6 NNW 28 37 15 20 1011.5 - 0.0
03/10:00am 37.0 32.9 14.9 27 13.9 N 30 41 16 22 1011.5 - 0.0
03/09:30am 36.4 33.6 14.4 27 13.7 N 22 39 12 21 1011.5 - 0.0
03/09:00am 35.9 34.9 12.2 24 14.3 NNE 9 20 5 11 1011.4 1010.4 0.0
03/08:30am 33.9 32.0 9.2 22 14.1 ENE 9 13 5 7 1011.3 - 0.0
03/08:00am 32.5 30.5 8.7 23 13.4 E 9 11 5 6 1011.2 - 0.0
03/07:30am 30.8 28.5 7.3 23 12.8 SE 9 13 5 7 1011.0 - 0.0
03/07:00am 30.1 28.3 7.3 24 12.4 ESE 6 9 3 5 1010.5 - 0.0
03/06:30am 29.6 26.9 7.5 25 12.0 ESE 11 15 6 8 1010.2 - 0.0
03/06:00am 29.9 26.8 7.2 24 12.3 E 13 17 7 9 1009.6 1008.7 0.0
03/05:30am 30.5 27.0 7.0 23 12.8 ESE 15 24 8 13 1009.4 - 0.0
03/05:00am 30.9 27.8 7.4 23 12.9 ESE 13 19 7 10 1009.0 - 0.0
03/04:30am 31.4 28.0 7.8 23 13.0 ESE 15 22 8 12 1008.7 - 0.0
03/04:00am 31.9 27.9 8.2 23 13.2 SE 19 26 10 14 1008.5 - 0.0
03/03:30am 32.2 27.9 7.8 22 13.5 SE 20 28 11 15 1008.3 - 0.0
03/03:00am 32.3 28.4 8.5 23 13.4 SE 19 24 10 13 1008.3 1007.4 0.0
03/02:30am 32.8 28.8 8.3 22 13.7 SSE 19 26 10 14 1008.3 - 0.0
03/02:00am 33.5 29.3 8.2 21 14.2 SSE 20 26 11 14 1008.4 - 0.0
03/01:30am 34.0 29.5 7.1 19 14.9 SSE 20 26 11 14 1008.6 - 0.0
03/01:00am 34.6 30.1 6.8 18 15.4 SSE 20 26 11 14 1008.6 - 0.0
03/12:30am 34.9 30.2 6.2 17 15.7 SSE 20 28 11 15 1008.8 - 0.0
03/12:00am 35.0 30.2 5.4 16 16.1 SSE 20 28 11 15 1008.8 1007.8 0.0
 
Date/Time
EST
Temp
°C
App
Temp
°C
Dew
Point
Rel
Hum
%
Delta-T
°C
Wind Press
QNH
hPa
Press
MSL
hPa
Rain
since 9 am
mm
Dir
 
Spd
km/h
Gust
km/h
Spd
kts
Gust
kts
02/11:30pm 35.3 30.5 4.8 15 16.4 S 19 20 10 11 1008.7 - 0.0
02/11:00pm 36.0 31.3 5.3 15 16.7 S 19 22 10 12 1008.5 - 0.0
02/10:30pm 36.0 32.1 5.3 15 16.7 S 15 20 8 11 1008.4 - 0.0
02/10:00pm 35.2 32.5 5.6 16 16.1 SSW 9 9 5 5 1008.2 - 0.0
02/09:30pm 35.6 33.5 5.9 16 16.3 SW 6 9 3 5 1008.4 - 0.0
02/09:00pm 35.3 33.2 5.7 16 16.2 SE 6 9 3 5 1008.1 1007.1 0.0
02/08:30pm 38.1 34.7 6.0 14 17.8 SSW 13 17 7 9 1007.7 - 0.0
02/08:00pm 37.7 35.2 6.6 15 17.4 SSE 9 11 5 6 1007.3 - 0.0
02/07:30pm 38.0 35.7 5.9 14 17.8 SSW 7 9 4 5 1006.9 - 0.0
02/07:00pm 39.4 37.1 5.9 13 18.7 SSW 7 11 4 6 1006.7 - 0.0
02/06:30pm 40.5 38.4 6.7 13 19.2 SW 7 11 4 6 1006.4 - 0.0
02/06:00pm 40.9 37.5 5.9 12 19.7 SSW 13 17 7 9 1006.2 1005.4 0.0
02/05:30pm 40.9 38.3 5.9 12 19.7 E 9 13 5 7 1006.0 - 0.0
02/05:00pm 41.3 38.0 6.2 12 19.8 S 13 22 7 12 1005.8 - 0.0
02/04:30pm 41.4 37.7 6.3 12 19.9 SW 15 22 8 12 1005.8 - 0.0
02/04:00pm 41.3 39.1 6.2 12 19.8 SE 7 13 4 7 1005.8 - 0.0
02/03:30pm 41.4 38.5 6.3 12 19.9 SE 11 19 6 10 1005.9 - 0.0
02/03:00pm 41.8 38.8 7.7 13 19.8 S 13 15 7 8 1006.2 1005.2 0.0
02/02:30pm 40.3 38.2 6.6 13 19.1 S 7 11 4 6 1006.5 - 0.0
02/02:00pm 40.7 38.3 6.9 13 19.2 NE 9 13 5 7 1006.8 - 0.0
02/01:30pm 40.8 37.6 7.0 13 19.3 SW 13 24 7 13 1007.3 - 0.0
02/01:00pm 39.3 36.6 8.9 16 17.7 ESE 13 20 7 11 1007.7 - 0.0
02/12:30pm 39.2 37.5 11.3 19 16.8 ESE 11 20 6 11 1008.2 - 0.0
02/12:00pm 38.3 36.2 13.5 23 15.4 E 17 28 9 15 1008.7 1007.6 0.0
02/11:30am 37.6 35.1 14.2 25 14.6 E 20 32 11 17 1009.0 - 0.0
02/11:00am 36.3 34.1 14.3 27 13.7 E 19 28 10 15 1009.5 - 0.0
02/10:30am 35.3 32.8 14.0 28 13.2 E 20 28 11 15 1009.9 - 0.0
02/10:00am 33.5 30.9 11.9 27 12.8 E 17 26 9 14 1010.2 - 0.0
02/09:30am 32.4 29.1 11.6 28 12.3 E 20 32 11 17 1010.4 - 0.0
02/09:00am 32.0 28.8 11.2 28 12.2 ESE 19 26 10 14 1010.3 1009.4 0.0
02/08:30am 30.5 26.7 9.9 28 11.7 ESE 20 32 11 17 1010.2 - 0.0
02/08:00am 29.3 25.1 8.4 27 11.5 SE 20 26 11 14 1009.8 - 0.0
02/07:30am 28.3 24.5 7.5 27 11.2 SE 17 22 9 12 1009.6 - 0.0
02/07:00am 27.4 24.7 7.3 28 10.8 SE 11 17 6 9 1009.6 - 0.0
02/06:30am 27.0 24.0 7.5 29 10.5 SE 13 19 7 10 1009.2 - 0.0
02/06:00am 27.1 23.4 8.0 30 10.4 SSE 17 24 9 13 1008.9 1007.9 0.0
02/05:30am 27.5 24.4 8.9 31 10.3 SSE 15 22 8 12 1008.6 - 0.0
02/05:00am 27.6 24.9 9.0 31 10.3 SE 13 19 7 10 1008.5 - 0.0
02/04:30am 28.0 24.6 9.3 31 10.4 SE 17 24 9 13 1007.9 - 0.0
02/04:00am 28.3 24.4 9.6 31 10.5 SSE 20 26 11 14 1007.7 - 0.0
02/03:30am 28.6 25.4 9.8 31 10.6 SE 17 26 9 14 1007.8 - 0.0
02/03:00am 28.8 25.2 10.0 31 10.6 SE 19 28 10 15 1008.1 1007.1 0.0
02/02:30am 29.3 25.5 9.9 30 11.0 SE 20 32 11 17 1008.4 - 0.0
02/02:00am 29.7 26.0 10.3 30 11.1 SSE 20 30 11 16 1008.5 - 0.0
02/01:30am 30.1 27.5 10.6 30 11.2 SSE 15 22 8 12 1008.7 - 0.0
02/01:00am 30.6 26.2 10.5 29 11.5 SSE 24 35 13 19 1008.7 - 0.0
02/12:30am 31.2 26.2 11.1 29 11.7 SSE 28 41 15 22 1008.6 - 0.0
02/12:00am 31.7 27.1 11.0 28 12.1 SSE 26 41 14 22 1008.7 1007.7 0.0
 
Date/Time
EST
Temp
°C
App
Temp
°C
Dew
Point
Rel
Hum
%
Delta-T
°C
Wind Press
QNH
hPa
Press
MSL
hPa
Rain
since 9 am
mm
Dir
 
Spd
km/h
Gust
km/h
Spd
kts
Gust
kts
01/11:30pm 32.5 27.8 10.5 26 12.7 SSE 26 35 14 19 1008.5 - 0.0
01/11:00pm 33.2 28.5 10.5 25 13.2 SSE 26 35 14 19 1008.4 - 0.0
01/10:30pm 34.2 29.3 11.4 25 13.5 SSE 28 35 15 19 1008.3 - 0.0
01/10:00pm 34.9 31.0 10.7 23 14.2 SSE 22 33 12 18 1008.1 - 0.0
01/09:30pm 35.8 30.9 10.1 21 15.0 SSE 26 39 14 21 1007.4 - 0.0
01/09:00pm 36.6 31.3 8.4 18 16.1 SSE 26 35 14 19 1007.0 1006.1 0.0
01/08:30pm 37.0 32.5 7.0 16 16.8 SSE 20 30 11 16 1006.6 - 0.0
01/08:00pm 37.5 33.1 6.5 15 17.3 SSE 19 22 10 12 1006.2 - 0.0
01/07:30pm 38.3 33.1 7.1 15 17.6 S 24 35 13 19 1005.8 - 0.0
01/07:00pm 38.8 33.8 6.5 14 18.1 S 22 28 12 15 1005.4 - 0.0
01/06:30pm 39.5 33.4 4.8 12 19.0 SSE 26 35 14 19 1004.9 - 0.0
01/06:00pm 40.2 35.4 5.4 12 19.4 S 20 28 11 15 1004.6 1003.6 0.0
01/05:30pm 40.7 35.9 4.5 11 19.9 SSE 19 28 10 15 1004.5 - 0.0
01/05:00pm 41.4 35.7 5.0 11 20.2 S 24 32 13 17 1004.3 - 0.0
01/04:30pm 41.3 36.0 4.9 11 20.2 S 22 33 12 18 1004.3 - 0.0
01/04:00pm 41.4 35.6 6.3 12 19.9 SSE 26 37 14 20 1004.3 - 0.0
01/03:30pm 40.8 38.8 7.0 13 19.3 SW 7 32 4 17 1004.3 - 0.0
01/03:00pm 41.8 37.2 6.6 12 20.1 S 20 26 11 14 1004.6 1003.6 0.0
01/02:30pm 41.3 36.2 6.2 12 19.8 S 22 35 12 19 1004.8 - 0.0
01/02:00pm 40.5 36.3 5.6 12 19.5 S 17 28 9 15 1005.0 - 0.0
01/01:30pm 40.7 37.6 5.7 12 19.6 S 11 20 6 11 1005.3 - 0.0
01/01:00pm 40.5 36.3 5.6 12 19.5 WSW 17 26 9 14 1005.6 - 0.0
01/12:30pm 40.4 38.3 6.7 13 19.1 ESE 7 15 4 8 1006.0 - 0.0
01/12:00pm 39.0 36.5 6.7 14 18.2 SSE 9 15 5 8 1006.4 1005.4 0.0
01/11:30am 38.9 36.0 6.6 14 18.2 SE 11 22 6 12 1006.8 - 0.0
01/11:00am 38.8 37.2 6.5 14 18.1 N 4 11 2 6 1007.1 - 0.0
01/10:30am 37.9 36.3 8.6 17 16.9 ENE 7 17 4 9 1007.2 - 0.0
01/10:00am 37.3 36.0 9.8 19 16.1 NE 7 15 4 8 1007.3 - 0.0
01/09:30am 36.7 35.1 11.5 22 15.1 NE 11 17 6 9 1007.2 - 0.0
01/09:00am 34.4 33.2 9.6 22 14.3 NNE 6 7 3 4 1007.0 1006.2 0.0
01/08:30am 31.8 30.2 8.1 23 13.2 NE 6 9 3 5 1006.6 - 0.0
01/08:00am 30.1 28.0 6.7 23 12.6 ESE 7 9 4 5 1006.3 - 0.0
01/07:30am 28.4 26.1 5.9 24 11.8 SE 7 9 4 5 1006.1 - 0.0
01/07:00am 26.0 23.8 6.1 28 10.4 SSE 7 7 4 4 1005.6 - 0.0
01/06:30am 25.3 23.1 6.0 29 10.0 SSE 7 7 4 4 1005.1 - 0.0
01/06:00am 25.0 22.8 5.2 28 10.1 SE 6 7 3 4 1004.8 1003.8 0.0
01/05:30am 25.1 22.4 5.8 29 9.9 S 9 11 5 6 1004.5 - 0.0
01/05:00am 24.8 22.6 5.1 28 10.0 SSE 6 7 3 4 1004.2 - 0.0
01/04:30am 25.3 22.9 4.4 26 10.5 ESE 6 7 3 4 1004.0 - 0.0
01/04:00am 25.6 23.7 4.7 26 10.6 ESE 4 7 2 4 1003.8 - 0.0
01/03:30am 27.4 24.2 3.2 21 12.1 SSE 9 9 5 5 1003.7 - 0.0
01/03:00am 27.3 24.6 3.7 22 11.9 S 7 9 4 5 1003.6 1002.6 0.0
01/02:30am 27.8 24.7 3.5 21 12.2 S 9 11 5 6 1003.8 - 0.0
01/02:00am 28.7 25.1 2.8 19 12.9 SSE 11 11 6 6 1003.9 - 0.0
01/01:30am 29.2 26.4 3.2 19 13.1 S 7 9 4 5 1004.3 - 0.0
01/01:00am 29.5 26.0 1.1 16 13.9 SSW 9 11 5 6 1004.7 - 0.0
01/12:30am 30.3 26.1 1.7 16 14.2 SSW 13 17 7 9 1004.9 - 0.0
01/12:00am 30.5 26.2 1.0 15 14.5 SSW 13 13 7 7 1005.2 1004.1 0.0
 
Date/Time
EST
Temp
°C
App
Temp
°C
Dew
Point
Rel
Hum
%
Delta-T
°C
Wind Press
QNH
hPa
Press
MSL
hPa
Rain
since 9 am
mm
Dir
 
Spd
km/h
Gust
km/h
Spd
kts
Gust
kts
28/11:30pm 30.8 27.1 2.1 16 14.4 SSW 11 13 6 7 1005.3 - 0.0
28/11:00pm 31.1 28.0 1.4 15 14.7 SSW 7 9 4 5 1005.4 - 0.0
28/10:30pm 32.5 28.8 2.5 15 15.3 S 11 13 6 7 1005.4 - 0.0
28/10:00pm 32.8 29.4 1.8 14 15.6 S 9 13 5 7 1005.6 - 0.0
28/09:30pm 33.4 29.7 2.3 14 15.9 SW 11 15 6 8 1005.3 - 0.0
28/09:00pm 33.8 30.1 2.6 14 16.1 WSW 11 13 6 7 1005.0 1003.9 0.0
28/08:30pm 34.9 31.2 2.4 13 16.8 WSW 11 15 6 8 1004.6 - 0.0
28/08:00pm 35.1 31.4 2.6 13 16.8 WSW 11 15 6 8 1004.3 - 0.0
28/07:30pm 35.9 33.1 3.2 13 17.2 SW 7 7 4 4 1004.0 - 0.0
28/07:00pm 37.4 34.6 3.2 12 18.1 S 7 11 4 6 1003.6 - 0.0

Other Formats:

Comma delimited format used in spreadsheet applications
http://www.bom.gov.au/fwo/IDQ60801/IDQ60801.95492.axf

JavaScript Object Notation format (JSON) in row-major order
http://www.bom.gov.au/fwo/IDQ60801/IDQ60801.95492.json